Time;durP1;ratioP1;P1;durP2;ratioP2;P2;SDS_P1;SDS_P2;PMS_P1;PMS_P2;Temp;Humidity;BMP_temperature;BMP_pressure;BME280_temperature;BME280_humidity;BME280_pressure;Samples;Min_cycle;Max_cycle;Signal;HPM_P1;HPM_P2
2021/07/03 00:01:23;;;;;;;;;13.50;12.25;;;;;23.72;51.73;100985.13;5062314;28;45361;-77
2021/07/03 00:03:48;;;;;;;;;10.00;10.00;;;;;23.46;52.18;100944.59;5074792;28;46851;-77
2021/07/03 00:06:14;;;;;;;;;10.75;10.25;;;;;23.48;52.35;100960.81;5075799;27;45366;-77
2021/07/03 00:08:39;;;;;;;;;13.50;11.50;;;;;23.80;52.53;101003.56;5080378;28;45476;-77
2021/07/03 00:11:07;;;;;;;;;10.75;10.50;;;;;23.56;51.93;100971.94;5061652;28;45426;-77
2021/07/03 00:13:33;;;;;;;;;12.25;10.25;;;;;23.63;52.41;100997.66;5080454;28;45375;-77
2021/07/03 00:15:59;;;;;;;;;11.50;11.00;;;;;23.58;52.81;100983.56;5061888;28;45417;-77
2021/07/03 00:18:24;;;;;;;;;13.25;13.25;;;;;23.46;52.48;100955.50;5080273;27;45370;-77
2021/07/03 00:20:50;;;;;;;;;14.00;11.75;;;;;23.46;52.46;100965.53;5061953;28;45499;-77
2021/07/03 00:23:15;;;;;;;;;14.75;12.50;;;;;23.62;52.15;100990.50;5061923;28;47177;-76
2021/07/03 00:25:41;;;;;;;;;12.75;10.75;;;;;23.65;52.87;100994.81;5079908;28;45370;-77
2021/07/03 00:28:07;;;;;;;;;9.50;9.50;;;;;23.57;52.38;100980.97;5080403;27;45494;-77
2021/07/03 00:30:32;;;;;;;;;11.25;10.75;;;;;23.48;52.37;100969.84;5080098;28;45279;-77
2021/07/03 00:33:00;;;;;;;;;10.50;10.50;;;;;23.52;52.81;100970.44;5077407;28;46488;-77
2021/07/03 00:35:27;;;;;;;;;9.00;9.00;;;;;23.70;52.50;101010.78;5079352;28;45433;-77
2021/07/03 00:37:53;;;;;;;;;11.00;10.00;;;;;23.48;52.57;100975.28;5080126;28;45403;-77
2021/07/03 00:40:19;;;;;;;;;9.25;9.25;;;;;23.40;52.65;100975.06;5061390;28;45406;-77
2021/07/03 00:42:44;;;;;;;;;12.50;12.00;;;;;23.50;52.67;100991.50;5079940;28;46436;-78
2021/07/03 00:45:10;;;;;;;;;11.00;9.25;;;;;23.38;52.76;100973.47;5079952;28;45296;-77
2021/07/03 00:47:37;;;;;;;;;14.00;12.00;;;;;23.40;52.38;100980.50;5062051;28;45442;-77
2021/07/03 00:50:09;;;;;;;;;12.25;12.00;;;;;23.27;52.60;100967.06;5079936;28;45396;-77
2021/07/03 00:52:39;;;;;;;;;11.75;11.75;;;;;23.36;52.44;100975.47;5079945;28;45354;-77
2021/07/03 00:55:06;;;;;;;;;9.50;9.50;;;;;23.49;52.69;100995.25;5079321;28;45430;-77
2021/07/03 00:57:32;;;;;;;;;11.50;10.00;;;;;23.16;52.80;100941.72;5079848;28;45320;-77
2021/07/03 00:59:58;;;;;;;;;12.25;11.25;;;;;23.17;52.84;100944.31;5079714;28;45231;-77
2021/07/03 01:02:24;;;;;;;;;11.25;9.75;;;;;23.16;53.15;100956.19;5079809;28;45279;-77
2021/07/03 01:04:49;;;;;;;;;11.75;10.75;;;;;23.22;52.50;100960.25;5079296;27;45653;-77
2021/07/03 01:07:15;;;;;;;;;11.75;10.50;;;;;23.29;52.76;100978.69;5061631;28;45348;-77
2021/07/03 01:09:41;;;;;;;;;9.50;9.00;;;;;23.21;53.05;100953.09;5090904;27;45239;-77
2021/07/03 01:12:08;;;;;;;;;9.25;9.25;;;;;23.21;53.23;100958.53;5079314;28;45570;-77
2021/07/03 01:14:40;;;;;;;;;11.25;11.25;;;;;23.24;53.40;100963.72;5079838;28;45385;-77
2021/07/03 01:17:05;;;;;;;;;11.50;10.75;;;;;23.20;52.91;100960.38;5083396;28;45319;-77
2021/07/03 01:19:31;;;;;;;;;12.00;11.50;;;;;23.39;53.17;100989.69;5083070;27;45448;-77
2021/07/03 01:21:56;;;;;;;;;13.00;13.00;;;;;23.08;53.35;100932.28;5082795;28;45477;-77
2021/07/03 01:24:23;;;;;;;;;10.25;10.25;;;;;23.01;53.29;100919.31;5071697;28;45342;-77
2021/07/03 01:26:54;;;;;;;;;14.00;10.75;;;;;23.34;53.75;100974.69;5083135;28;45387;-77
2021/07/03 01:29:22;;;;;;;;;12.75;12.50;;;;;22.91;53.39;100906.44;5083254;27;45661;-77
2021/07/03 01:31:49;;;;;;;;;10.00;10.00;;;;;23.10;53.34;100935.78;5082943;28;45472;-77
2021/07/03 01:34:17;;;;;;;;;11.50;11.50;;;;;23.29;53.61;100972.38;5082793;28;45524;-77
2021/07/03 01:36:42;;;;;;;;;10.00;10.00;;;;;23.08;54.01;100940.47;5082916;27;45393;-77
2021/07/03 01:39:08;;;;;;;;;11.00;11.00;;;;;22.98;53.35;100942.19;5082362;27;45334;-77
2021/07/03 01:41:39;;;;;;;;;11.50;10.50;;;;;23.01;53.90;100935.63;5063649;27;46312;-77
2021/07/03 01:44:05;;;;;;;;;11.00;11.00;;;;;23.05;54.09;100943.41;5062714;27;45359;-77
2021/07/03 01:46:31;;;;;;;;;15.00;14.00;;;;;23.10;53.96;100953.94;5062474;27;45409;-77
2021/07/03 01:49:01;;;;;;;;;13.75;13.00;;;;;22.97;54.11;100948.63;5062391;27;45247;-77
2021/07/03 01:51:27;;;;;;;;;16.25;15.75;;;;;22.95;53.87;100942.44;5062347;27;45357;-76
2021/07/03 01:53:52;;;;;;;;;16.75;14.25;;;;;22.90;54.16;100931.94;5061963;27;45694;-76
2021/07/03 01:56:17;;;;;;;;;16.50;15.50;;;;;23.08;54.19;100962.25;5061083;27;45633;-77
2021/07/03 01:58:43;;;;;;;;;15.00;14.25;;;;;23.01;53.93;100951.97;5064079;27;45555;-76
2021/07/03 02:01:08;;;;;;;;;15.50;15.50;;;;;23.06;54.31;100966.06;5066284;27;46218;-76
2021/07/03 02:03:33;;;;;;;;;14.75;14.25;;;;;22.77;54.34;100914.88;5063505;27;45386;-76
2021/07/03 02:05:59;;;;;;;;;19.75;17.50;;;;;22.76;54.66;100914.00;5066316;27;45401;-76
2021/07/03 02:08:24;;;;;;;;;15.75;14.75;;;;;22.70;54.78;100903.63;5070771;27;45514;-76
2021/07/03 02:10:50;;;;;;;;;14.75;13.00;;;;;22.87;54.67;100940.34;5070829;27;46149;-75
2021/07/03 02:13:16;;;;;;;;;14.00;14.00;;;;;22.71;54.66;100910.78;5064055;28;45865;-76
2021/07/03 02:23:53;;;;;;;;;;;;;;;;;;;;;
2021/07/03 02:34:11;;;;;;;;;;;;;;;;;;;;;
2021/07/03 02:37:58;;;;;;;;;;;;;;;;;;;;;
2021/07/03 02:54:17;;;;;;;;;;;;;;;;;;;;;
2021/07/03 03:00:39;;;;;;;;;;;;;;;;;;;;;
2021/07/03 03:10:54;;;;;;;;;;;;;;;;;;;;;
2021/07/03 03:17:44;;;;;;;;;;;;;;;;;;;;;
2021/07/03 03:31:35;;;;;;;;;;;;;;;;;;;;;
2021/07/03 03:49:03;;;;;;;;;;;;;;;;;;;;;
2021/07/03 04:48:04;;;;;;;;;;;;;;;;;;;;;
2021/07/03 05:04:21;;;;;;;;;;;;;;;;;;;;;
2021/07/03 05:39:48;;;;;;;;;;;;;;;;;;;;;
2021/07/03 06:14:26;;;;;;;;;;;;;;;;;;;;;
2021/07/03 06:17:46;;;;;;;;;;;;;;;;;;;;;
2021/07/03 06:31:37;;;;;;;;;;;;;;;;;;;;;
2021/07/03 06:37:31;;;;;;;;;;;;;;;;;;;;;
2021/07/03 06:44:30;;;;;;;;;14.50;11.75;;;;;22.58;58.36;100945.41;4852771;29;46264;-77
2021/07/03 06:46:56;;;;;;;;;15.00;15.00;;;;;22.73;57.95;100989.56;4893761;28;45571;-75
2021/07/03 06:49:21;;;;;;;;;12.00;12.00;;;;;22.36;58.39;100922.63;4974023;28;45309;-74
2021/07/03 06:51:47;;;;;;;;;14.00;13.00;;;;;22.42;58.54;100926.72;4980567;28;45409;-73
2021/07/03 06:54:12;;;;;;;;;11.25;10.75;;;;;22.44;57.63;100923.91;4981327;28;45886;-75
2021/07/03 06:56:37;;;;;;;;;13.50;13.50;;;;;22.66;57.89;100963.84;4981609;28;45282;-75
2021/07/03 06:59:03;;;;;;;;;11.50;11.25;;;;;22.44;57.67;100913.88;4980451;28;45265;-75
2021/07/03 07:01:29;;;;;;;;;14.00;13.75;;;;;22.85;57.88;100982.28;4980468;28;45942;-75
2021/07/03 07:03:54;;;;;;;;;15.25;14.25;;;;;22.68;58.40;100956.41;4981216;28;47832;-74
2021/07/03 07:06:20;;;;;;;;;11.25;10.25;;;;;22.88;57.82;100999.22;4998872;28;45681;-76
2021/07/03 07:08:45;;;;;;;;;10.00;10.00;;;;;22.71;57.87;100962.47;4981074;28;45698;-76
2021/07/03 07:11:11;;;;;;;;;9.50;8.50;;;;;22.45;57.53;100914.72;4980158;28;45668;-75
2021/07/03 07:13:36;;;;;;;;;11.75;10.75;;;;;22.57;57.65;100927.38;4980908;28;46472;-76
2021/07/03 07:16:04;;;;;;;;;12.50;11.00;;;;;22.63;57.70;100928.72;4980287;28;45758;-76
2021/07/03 07:18:34;;;;;;;;;13.50;12.50;;;;;22.84;57.13;100978.69;4999645;28;45352;-76
2021/07/03 07:20:59;;;;;;;;;11.50;11.50;;;;;22.72;57.77;100950.63;5012547;28;45421;-75
2021/07/03 07:23:25;;;;;;;;;10.25;9.00;;;;;22.73;57.18;100954.19;4981523;28;48277;-76
2021/07/03 07:25:50;;;;;;;;;10.00;9.75;;;;;22.61;57.71;100938.88;5000544;28;45498;-76
2021/07/03 07:28:19;;;;;;;;;9.25;9.25;;;;;22.60;56.80;100928.97;4998773;28;45476;-76
2021/07/03 07:30:49;;;;;;;;;11.75;11.00;;;;;22.96;56.77;100985.00;4982632;28;45428;-76
2021/07/03 07:33:15;;;;;;;;;10.50;10.25;;;;;23.13;56.44;101010.88;4998577;28;45518;-77
2021/07/03 07:35:43;;;;;;;;;11.00;10.75;;;;;22.88;56.96;100965.69;5000583;28;45411;-79
2021/07/03 07:38:09;;;;;;;;;9.00;8.00;;;;;22.82;56.27;100953.47;4982676;28;45499;-76
2021/07/03 07:40:34;;;;;;;;;9.75;9.50;;;;;22.93;56.23;100975.22;5000490;28;45367;-77
2021/07/03 07:43:00;;;;;;;;;9.25;9.25;;;;;22.88;56.56;100966.56;5000505;28;45542;-77
2021/07/03 07:45:25;;;;;;;;;10.75;9.75;;;;;22.91;56.41;100971.75;4983025;28;45345;-77
2021/07/03 07:47:51;;;;;;;;;9.75;9.00;;;;;22.86;56.63;100968.53;4982984;28;45325;-77
2021/07/03 07:50:16;;;;;;;;;10.00;10.00;;;;;22.83;55.94;100954.31;4982875;28;45364;-77
2021/07/03 07:52:42;;;;;;;;;11.50;10.25;;;;;22.86;56.32;100962.25;4999781;28;45315;-74
2021/07/03 07:55:08;;;;;;;;;13.25;12.50;;;;;23.09;56.60;101004.81;4981361;28;45341;-73
2021/07/03 07:57:33;;;;;;;;;9.50;9.50;;;;;23.06;56.60;100996.00;4998110;28;45665;-73
2021/07/03 07:59:59;;;;;;;;;13.00;11.75;;;;;23.08;56.13;100984.03;5000817;28;45652;-73
2021/07/03 08:02:24;;;;;;;;;11.25;10.50;;;;;22.93;56.48;100955.31;5012562;28;45365;-73
2021/07/03 08:04:50;;;;;;;;;10.25;10.25;;;;;23.26;56.51;101010.75;5000136;28;45492;-73
2021/07/03 08:07:15;;;;;;;;;10.25;9.25;;;;;22.93;56.21;100955.31;4982788;28;45747;-75
2021/07/03 08:09:44;;;;;;;;;11.50;10.50;;;;;23.28;56.19;101004.19;4982379;28;45411;-75
2021/07/03 08:12:13;;;;;;;;;11.00;11.00;;;;;23.17;56.64;100993.31;5000078;28;45416;-75
2021/07/03 08:14:41;;;;;;;;;13.00;13.00;;;;;23.20;56.19;100990.31;4984319;28;45850;-75
2021/07/03 08:17:10;;;;;;;;;11.75;11.75;;;;;23.19;56.08;100990.44;4993470;28;45456;-74
2021/07/03 08:19:35;;;;;;;;;11.50;11.25;;;;;23.22;55.86;100998.38;4999991;28;45297;-75
2021/07/03 08:22:01;;;;;;;;;10.75;10.25;;;;;23.29;55.96;101011.38;4999023;28;47140;-72
2021/07/03 08:24:30;;;;;;;;;9.50;9.50;;;;;23.16;55.90;100979.84;4995865;28;45340;-77
2021/07/03 08:26:57;;;;;;;;;13.00;13.00;;;;;23.03;56.43;100953.56;5000180;28;45461;-77
2021/07/03 08:29:23;;;;;;;;;10.00;10.00;;;;;23.13;56.43;100981.78;4999321;28;45455;-76
2021/07/03 08:31:48;;;;;;;;;13.25;13.25;;;;;23.14;56.50;100982.69;5000139;28;46049;-76
2021/07/03 08:34:14;;;;;;;;;12.25;9.75;;;;;23.19;56.33;100991.34;4989708;28;45442;-76
2021/07/03 08:36:39;;;;;;;;;12.25;12.25;;;;;23.37;56.27;101021.66;4993834;28;45757;-76
2021/07/03 08:39:05;;;;;;;;;10.00;9.00;;;;;23.07;56.22;100973.25;4999515;28;45438;-76
2021/07/03 08:41:32;;;;;;;;;10.25;10.25;;;;;23.24;56.34;101001.84;4999846;28;46590;-76
2021/07/03 08:43:58;;;;;;;;;9.75;9.50;;;;;22.92;56.08;100956.28;5019840;28;46541;-76
2021/07/03 08:46:25;;;;;;;;;10.50;10.50;;;;;23.05;56.01;100976.06;5008507;28;45554;-76
2021/07/03 08:48:54;;;;;;;;;9.75;9.25;;;;;23.22;56.15;101001.97;4997205;28;45574;-76
2021/07/03 08:51:22;;;;;;;;;12.50;10.50;;;;;23.12;55.91;100990.09;5001762;28;46535;-76
2021/07/03 08:53:53;;;;;;;;;11.75;11.25;;;;;23.29;56.66;101018.69;5017980;28;45396;-76
2021/07/03 08:56:19;;;;;;;;;12.00;11.25;;;;;23.29;56.10;101026.84;5018508;28;45479;-75
2021/07/03 08:58:45;;;;;;;;;14.25;13.00;;;;;23.15;56.16;101013.47;5015433;28;45494;-76
2021/07/03 09:01:10;;;;;;;;;11.00;10.00;;;;;23.20;56.02;101019.41;5013679;28;45757;-75
2021/07/03 09:03:36;;;;;;;;;10.00;10.00;;;;;23.34;56.54;101040.97;4991828;28;45613;-75
2021/07/03 09:06:06;;;;;;;;;10.00;10.00;;;;;23.19;56.75;101010.41;5007446;28;45657;-75
2021/07/03 09:08:56;;;;;;;;;14.75;11.00;;;;;23.32;57.00;101040.19;4984654;28;45564;-82
2021/07/03 09:15:10;;;;;;;;;9.25;8.75;;;;;22.85;57.74;100952.34;4928481;28;45651;-84
2021/07/03 09:18:44;;;;;;;;;11.50;11.50;;;;;23.35;56.90;101028.19;5012819;28;45546;-76
2021/07/03 09:21:09;;;;;;;;;12.25;11.25;;;;;23.22;57.12;101012.88;4999858;28;45266;-74
2021/07/03 09:23:38;;;;;;;;;14.25;11.50;;;;;23.05;56.89;100989.69;5004719;28;48023;-75
2021/07/03 09:26:11;;;;;;;;;13.00;11.75;;;;;23.01;56.75;100987.34;5011769;28;45553;-76
2021/07/03 09:28:42;;;;;;;;;10.00;10.00;;;;;23.04;57.00;100992.56;5018070;28;45512;-75
2021/07/03 09:31:10;;;;;;;;;12.25;11.00;;;;;22.93;56.81;100971.63;5000118;28;45499;-76
2021/07/03 09:33:38;;;;;;;;;11.00;11.00;;;;;22.98;56.62;100988.47;5009785;28;45576;-77
2021/07/03 09:36:06;;;;;;;;;12.75;12.75;;;;;23.19;56.85;101025.84;4987922;28;45470;-75
2021/07/03 09:38:48;;;;;;;;;11.75;11.75;;;;;23.22;56.99;101034.66;5001427;28;45343;-75
2021/07/03 09:41:25;;;;;;;;;12.25;11.00;;;;;23.19;56.82;101032.19;4983703;28;45433;-73
2021/07/03 09:43:50;;;;;;;;;13.50;11.75;;;;;23.30;56.83;101059.41;5020479;28;45452;-74
2021/07/03 09:46:42;;;;;;;;;12.50;12.50;;;;;23.02;56.84;101016.28;5021435;28;45400;-74
2021/07/03 09:49:13;;;;;;;;;12.00;10.75;;;;;23.09;56.57;101033.91;4990074;28;45376;-75
2021/07/03 09:51:50;;;;;;;;;10.75;9.00;;;;;23.08;56.51;101024.00;5001361;28;45353;-75
2021/07/03 09:54:18;;;;;;;;;11.50;10.75;;;;;23.11;57.28;101037.38;4999569;28;47229;-74
2021/07/03 09:56:44;;;;;;;;;10.25;10.25;;;;;23.05;56.78;101027.78;5001087;28;45361;-74
2021/07/03 09:59:13;;;;;;;;;12.00;12.00;;;;;23.30;56.88;101070.31;4983652;28;45524;-74
2021/07/03 10:01:40;;;;;;;;;11.50;11.50;;;;;23.25;57.34;101069.78;5001224;28;45330;-74
2021/07/03 10:04:07;;;;;;;;;10.75;10.25;;;;;22.94;56.90;101019.66;5008328;28;46412;-74
2021/07/03 10:07:10;;;;;;;;;10.00;10.00;;;;;23.28;57.19;101068.69;4970522;28;45513;-73
2021/07/03 10:09:48;;;;;;;;;13.00;12.00;;;;;23.05;57.09;101026.94;5000711;28;45651;-71
2021/07/03 10:12:17;;;;;;;;;11.50;11.50;;;;;23.09;57.33;101031.19;5001104;28;45417;-71
2021/07/03 10:14:45;;;;;;;;;11.25;11.25;;;;;23.09;57.78;101025.75;4970580;28;47357;-71
2021/07/03 10:17:11;;;;;;;;;13.25;13.25;;;;;23.21;56.73;101041.09;5001009;28;45400;-71
2021/07/03 10:19:39;;;;;;;;;12.00;11.00;;;;;23.12;57.05;101020.03;5001255;28;45479;-71
2021/07/03 10:22:17;;;;;;;;;11.00;11.00;;;;;23.26;57.35;101043.44;5001422;28;45532;-71
2021/07/03 10:24:51;;;;;;;;;10.25;9.75;;;;;23.06;57.39;101012.34;4989830;28;45633;-71
2021/07/03 10:27:28;;;;;;;;;10.75;9.00;;;;;23.09;57.11;101021.16;5001741;28;45577;-71
2021/07/03 10:29:57;;;;;;;;;9.00;9.00;;;;;23.09;56.26;101009.41;5002027;28;45355;-71
2021/07/03 10:32:31;;;;;;;;;9.25;9.25;;;;;23.11;56.33;101021.03;4998214;28;45382;-71
2021/07/03 10:35:14;;;;;;;;;8.50;7.25;;;;;23.27;56.32;101048.75;4998149;28;45475;-71
2021/07/03 10:37:41;;;;;;;;;12.75;9.50;;;;;22.98;56.10;101004.78;4998511;28;45381;-71
2021/07/03 10:40:21;;;;;;;;;12.00;11.00;;;;;23.24;56.46;101050.88;5000287;28;45824;-72
2021/07/03 10:42:48;;;;;;;;;12.00;10.50;;;;;22.92;56.33;100999.81;5010955;28;45651;-72
2021/07/03 10:45:23;;;;;;;;;13.25;11.75;;;;;23.11;57.09;101026.50;5020294;28;45589;-72
2021/07/03 10:47:53;;;;;;;;;14.75;14.00;;;;;23.25;56.71;101049.88;5019615;28;45398;-71
2021/07/03 10:50:36;;;;;;;;;9.75;9.75;;;;;23.36;55.82;101070.81;5002532;28;45411;-72
2021/07/03 10:53:18;;;;;;;;;10.50;10.50;;;;;23.10;55.03;101022.03;4994669;28;45566;-74
2021/07/03 10:55:43;;;;;;;;;7.00;7.00;;;;;23.14;54.46;101023.53;4990667;28;46371;-72
2021/07/03 10:58:17;;;;;;;;;8.25;8.25;;;;;23.20;53.72;101031.16;4999156;28;45357;-72
2021/07/03 11:00:43;;;;;;;;;6.75;6.75;;;;;23.21;53.49;101022.03;5000497;28;45348;-72
2021/07/03 11:03:20;;;;;;;;;7.75;6.75;;;;;23.35;52.27;101050.00;5000285;28;45355;-72
2021/07/03 11:05:47;;;;;;;;;7.50;6.00;;;;;23.17;52.83;101019.66;5000361;28;45607;-72
2021/07/03 11:08:13;;;;;;;;;6.75;6.75;;;;;23.35;51.44;101044.53;4994429;28;45451;-72
2021/07/03 11:10:40;;;;;;;;;5.00;5.00;;;;;23.16;51.61;101005.19;4997630;28;45453;-75
2021/07/03 11:13:06;;;;;;;;;6.25;6.25;;;;;23.21;51.81;101011.13;4986813;28;45475;-74
2021/07/03 11:15:36;;;;;;;;;5.75;5.50;;;;;23.23;51.34;101013.72;5001842;28;47440;-74
2021/07/03 11:18:02;;;;;;;;;5.25;5.25;;;;;23.51;51.68;101046.88;5005635;28;45604;-73
2021/07/03 11:20:33;;;;;;;;;8.25;6.00;;;;;23.23;51.37;101000.97;5008580;28;45495;-73
2021/07/03 11:23:00;;;;;;;;;5.25;5.00;;;;;23.36;51.39;101016.31;4997266;28;45489;-73
2021/07/03 11:25:32;;;;;;;;;10.00;7.50;;;;;23.31;51.48;101003.06;5003252;28;48332;-73
2021/07/03 11:28:12;;;;;;;;;10.50;10.50;;;;;23.43;51.42;101018.41;5010558;28;45686;-73
2021/07/03 11:30:41;;;;;;;;;12.25;10.00;;;;;23.51;51.44;101027.81;5006785;28;45496;-74
2021/07/03 11:33:08;;;;;;;;;7.00;7.00;;;;;23.37;51.52;100999.84;5012799;28;45559;-72
2021/07/03 11:35:35;;;;;;;;;5.25;5.25;;;;;23.60;50.66;101041.53;4986829;28;46309;-73
2021/07/03 11:38:01;;;;;;;;;6.50;6.50;;;;;23.47;50.43;101016.28;4999182;28;45732;-74
2021/07/03 11:40:29;;;;;;;;;6.00;5.00;;;;;23.57;50.86;101032.75;4998156;28;45590;-73
2021/07/03 11:42:57;;;;;;;;;5.25;5.25;;;;;23.59;50.59;101023.47;4999788;28;45535;-72
2021/07/03 11:45:28;;;;;;;;;5.00;4.50;;;;;23.65;50.48;101039.28;4997479;28;45570;-72
2021/07/03 11:48:14;;;;;;;;;9.50;8.50;;;;;23.68;48.76;101035.44;4998229;28;45535;-72
2021/07/03 11:50:56;;;;;;;;;7.75;7.25;;;;;23.71;49.45;101039.78;4997332;28;45576;-70
2021/07/03 11:53:24;;;;;;;;;4.25;4.25;;;;;23.68;49.17;101027.28;4999064;28;45900;-70
2021/07/03 11:55:53;;;;;;;;;9.75;9.75;;;;;23.52;49.10;100989.53;4997702;28;45786;-72
2021/07/03 11:58:28;;;;;;;;;9.25;8.25;;;;;23.64;48.81;101001.28;5007774;28;45539;-72
2021/07/03 12:00:56;;;;;;;;;6.50;5.75;;;;;23.64;47.91;101004.00;5006603;28;45232;-71
2021/07/03 12:03:24;;;;;;;;;5.00;4.00;;;;;23.87;46.34;101042.97;5007678;28;45461;-73
2021/07/03 12:05:52;;;;;;;;;4.00;4.00;;;;;23.80;46.54;101017.19;5007380;28;45854;-73
2021/07/03 12:08:30;;;;;;;;;5.00;5.00;;;;;23.48;46.48;100967.13;5000997;28;45246;-73
2021/07/03 12:11:04;;;;;;;;;4.50;4.50;;;;;23.50;47.00;100964.28;4997887;28;45488;-73
2021/07/03 12:13:34;;;;;;;;;7.75;6.25;;;;;23.74;47.37;100996.78;5012433;28;45445;-73
2021/07/03 12:16:25;;;;;;;;;;;;;;;;;;;;;
2021/07/03 12:18:56;;;;;;;;;5.00;3.00;;;;;23.92;46.99;101010.72;5004002;28;74233;-71
2021/07/03 12:21:29;;;;;;;;;6.75;5.00;;;;;23.94;47.04;101014.22;5005662;28;45351;-71
2021/07/03 12:24:12;;;;;;;;;3.75;3.00;;;;;23.96;46.33;101012.22;5007741;28;45564;-71
2021/07/03 12:26:59;;;;;;;;;5.25;4.00;;;;;23.76;46.63;100974.84;5006670;28;46606;-71
2021/07/03 12:29:40;;;;;;;;;4.00;4.00;;;;;23.97;46.93;101008.50;4992479;28;45436;-71
2021/07/03 12:32:26;;;;;;;;;5.50;5.00;;;;;23.97;46.70;101007.63;4992385;28;45402;-71
2021/07/03 12:34:52;;;;;;;;;4.00;4.00;;;;;24.01;46.91;101003.66;4992681;28;45605;-71
2021/07/03 12:37:28;;;;;;;;;3.00;3.00;;;;;23.77;46.99;100961.09;5010736;28;46148;-71
2021/07/03 12:39:56;;;;;;;;;4.75;4.75;;;;;23.97;46.77;100986.69;5004485;28;45569;-71
2021/07/03 12:42:26;;;;;;;;;6.75;6.75;;;;;24.06;47.06;100993.22;4998146;28;45510;-71
2021/07/03 12:45:10;;;;;;;;;6.25;5.50;;;;;24.00;47.60;100986.41;4997142;28;45471;-71
2021/07/03 12:47:43;;;;;;;;;5.50;5.00;;;;;23.87;47.67;100963.91;5015945;28;46305;-71
2021/07/03 12:50:19;;;;;;;;;;;;;;;;;;;;;
2021/07/03 12:52:45;;;;;;;;;6.50;5.25;;;;;23.90;47.40;100970.97;5015030;28;68845;-71
2021/07/03 12:55:21;;;;;;;;;5.75;5.25;;;;;23.96;46.57;100974.06;5011893;28;45317;-71
2021/07/03 12:57:54;;;;;;;;;5.25;5.25;;;;;23.92;46.80;100964.38;5001060;28;47577;-71
2021/07/03 13:00:22;;;;;;;;;4.75;4.75;;;;;24.02;47.61;100969.91;5001374;28;45400;-71
2021/07/03 13:02:48;;;;;;;;;5.50;5.50;;;;;23.97;47.09;100964.00;5003280;28;45429;-71
2021/07/03 13:05:18;;;;;;;;;7.00;7.00;;;;;23.96;47.80;100963.16;5002527;28;45526;-71
2021/07/03 13:07:46;;;;;;;;;5.00;5.00;;;;;24.02;47.71;100964.47;4983129;28;47363;-71
2021/07/03 13:10:17;;;;;;;;;6.00;6.00;;;;;24.00;47.95;100958.28;4997536;28;45599;-71
2021/07/03 13:12:45;;;;;;;;;5.75;5.00;;;;;24.17;47.92;100986.84;5003705;28;45325;-71
2021/07/03 13:15:13;;;;;;;;;4.75;3.75;;;;;24.13;48.68;100979.94;5001491;28;45596;-71
2021/07/03 13:17:38;;;;;;;;;5.00;5.00;;;;;24.23;48.70;100991.75;4988992;28;46932;-71
2021/07/03 13:20:07;;;;;;;;;6.00;6.00;;;;;23.94;48.01;100948.78;5004755;28;45408;-71
2021/07/03 13:22:35;;;;;;;;;7.00;6.25;;;;;23.87;48.27;100939.38;5001808;28;45548;-71
2021/07/03 13:25:08;;;;;;;;;7.25;5.25;;;;;24.05;48.30;100953.31;5002818;28;45550;-71
2021/07/03 13:27:37;;;;;;;;;4.25;4.25;;;;;24.06;48.31;100957.78;5005164;28;45593;-71
2021/07/03 13:30:05;;;;;;;;;5.50;4.75;;;;;24.07;48.01;100964.09;5006284;28;45692;-71
2021/07/03 13:32:31;;;;;;;;;4.75;4.75;;;;;23.95;48.72;100945.03;5004946;28;45224;-71
2021/07/03 13:34:58;;;;;;;;;7.75;6.50;;;;;24.00;48.35;100945.50;4989232;28;45440;-71
2021/07/03 13:37:29;;;;;;;;;7.00;7.00;;;;;24.20;48.14;100978.38;5005962;28;45664;-71
2021/07/03 13:39:57;;;;;;;;;7.50;6.50;;;;;23.78;47.76;100905.56;5008499;28;45452;-71
2021/07/03 13:42:25;;;;;;;;;5.25;5.00;;;;;23.92;47.67;100936.28;5003275;28;45379;-71
2021/07/03 13:45:00;;;;;;;;;7.50;5.50;;;;;24.04;48.49;100955.19;5007387;28;45562;-71
2021/07/03 13:47:26;;;;;;;;;5.50;5.50;;;;;24.05;48.42;100962.34;5004626;28;48099;-71
2021/07/03 13:49:51;;;;;;;;;6.25;5.00;;;;;23.93;48.17;100941.59;5009369;28;45603;-71
2021/07/03 13:52:17;;;;;;;;;6.75;6.75;;;;;24.19;48.51;100980.25;5006332;28;45601;-71
2021/07/03 13:54:45;;;;;;;;;7.00;5.50;;;;;23.98;48.65;100942.06;5008947;28;45510;-71
2021/07/03 13:57:18;;;;;;;;;5.75;5.75;;;;;24.01;48.23;100947.25;5001992;28;46456;-71
2021/07/03 13:59:56;;;;;;;;;;;;;;;;;;;;;
2021/07/03 14:02:29;;;;;;;;;5.75;5.75;;;;;23.92;48.89;100922.63;5003305;28;68947;-73
2021/07/03 14:04:55;;;;;;;;;7.75;5.75;;;;;23.93;48.75;100922.50;5003988;28;45363;-73
2021/07/03 14:07:25;;;;;;;;;6.50;6.50;;;;;23.87;49.43;100912.13;4981999;28;47083;-73
2021/07/03 14:09:56;;;;;;;;;7.00;7.00;;;;;24.28;49.34;100975.88;4993441;28;46044;-73
2021/07/03 14:12:21;;;;;;;;;7.00;5.00;;;;;23.88;49.13;100900.22;4998419;28;45352;-71
2021/07/03 14:14:49;;;;;;;;;5.00;5.00;;;;;23.90;49.19;100908.28;4982608;28;45611;-71
2021/07/03 14:17:29;;;;;;;;;4.00;3.25;;;;;23.84;49.81;100899.63;5002434;28;46900;-71
2021/07/03 14:19:58;;;;;;;;;6.00;6.00;;;;;23.92;49.90;100909.00;5002661;28;45637;-71
2021/07/03 14:22:24;;;;;;;;;6.00;5.25;;;;;24.01;49.52;100927.31;4984238;28;45428;-71
2021/07/03 14:24:58;;;;;;;;;5.25;5.25;;;;;24.27;50.11;100963.22;5001888;28;45414;-71
2021/07/03 14:31:02;;;;;;;;;;;;;;;;;;;;;
2021/07/03 14:33:45;;;;;;;;;4.25;4.25;;;;;24.05;50.66;100923.31;4999296;28;68947;-71
2021/07/03 14:36:34;;;;;;;;;5.50;5.00;;;;;24.16;50.50;100936.88;4994120;28;45371;-71
2021/07/03 14:39:13;;;;;;;;;3.75;3.75;;;;;24.15;50.63;100929.69;4994455;28;46356;-71
2021/07/03 14:41:38;;;;;;;;;3.25;2.75;;;;;24.25;50.81;100948.84;4985401;28;45384;-71
2021/07/03 14:44:09;;;;;;;;;3.00;2.75;;;;;24.33;50.59;100954.50;5001240;28;45258;-71
2021/07/03 14:46:48;;;;;;;;;3.00;3.00;;;;;24.23;51.24;100939.94;5006837;28;45428;-71
2021/07/03 14:49:18;;;;;;;;;3.00;3.00;;;;;24.36;50.55;100943.31;5004285;28;45697;-71
2021/07/03 14:52:18;;;;;;;;;4.00;4.00;;;;;24.29;50.88;100923.06;4986583;28;45442;-71
2021/07/03 14:55:06;;;;;;;;;4.25;4.25;;;;;24.36;51.35;100932.41;5006623;28;45483;-71
2021/07/03 14:57:52;;;;;;;;;5.00;4.00;;;;;24.35;51.45;100925.22;5000439;28;45634;-72
2021/07/03 15:00:30;;;;;;;;;;;;;;;;;;;;;
2021/07/03 15:03:01;;;;;;;;;3.00;3.00;;;;;24.37;51.20;100911.44;5002904;28;72653;-71
2021/07/03 15:05:29;;;;;;;;;3.50;2.50;;;;;24.42;50.90;100923.69;5001335;28;45347;-71
2021/07/03 15:08:02;;;;;;;;;3.25;3.00;;;;;24.32;51.26;100898.19;4997810;28;45549;-71
2021/07/03 15:10:31;;;;;;;;;3.50;3.50;;;;;24.40;51.48;100911.19;4983226;28;45729;-71
2021/07/03 15:13:01;;;;;;;;;3.00;3.00;;;;;24.53;51.52;100927.34;4999886;28;45499;-71
2021/07/03 15:15:44;;;;;;;;;;;;;;;;;;;;;
2021/07/03 15:18:35;;;;;;;;;4.25;4.25;;;;;24.56;50.78;100938.88;5001465;28;71989;-71
2021/07/03 15:21:20;;;;;;;;;;;;;;;;;;;;;
2021/07/03 15:23:50;;;;;;;;;3.75;3.75;;;;;24.35;51.45;100899.81;5002162;28;72986;-71
2021/07/03 15:26:15;;;;;;;;;5.25;4.25;;;;;24.20;51.82;100882.94;5002593;28;45280;-71
2021/07/03 15:28:49;;;;;;;;;3.50;3.50;;;;;24.39;52.03;100914.91;5003939;28;45386;-71
2021/07/03 15:31:23;;;;;;;;;3.25;3.25;;;;;24.53;52.03;100946.44;5002460;28;46412;-71
2021/07/03 15:34:08;;;;;;;;;4.25;3.75;;;;;24.23;51.59;100888.97;4994493;28;45369;-71
2021/07/03 15:36:34;;;;;;;;;3.75;3.75;;;;;24.25;51.99;100888.84;5002474;28;45377;-71
2021/07/03 15:39:27;;;;;;;;;6.50;4.25;;;;;24.49;52.10;100943.13;5004215;28;45172;-71
2021/07/03 15:41:55;;;;;;;;;4.00;4.00;;;;;24.38;52.09;100927.69;5004195;28;46914;-70
2021/07/03 15:44:26;;;;;;;;;3.00;2.25;;;;;24.28;52.29;100901.38;5005132;28;45450;-71
2021/07/03 15:47:02;;;;;;;;;2.75;2.75;;;;;24.32;52.25;100900.94;5003011;28;45302;-71
2021/07/03 15:49:36;;;;;;;;;3.25;3.25;;;;;24.25;51.67;100880.66;5007719;28;45345;-70
2021/07/03 15:52:10;;;;;;;;;3.25;3.00;;;;;24.49;52.26;100926.75;4978468;28;45688;-71
2021/07/03 15:54:45;;;;;;;;;2.25;1.75;;;;;24.45;52.17;100918.97;4982951;28;45394;-70
2021/07/03 15:57:14;;;;;;;;;1.25;1.25;;;;;24.35;52.59;100906.13;5000415;28;45246;-71